Airfield :
LOGIN :

Register | Disclaimer

   EN    FR    IT 

 










Legend :    VFR   Marginal VFR   IFR   Intensive IFR   Very Intensive IFR
Visi :
Ceiling :
>= 8 km
>= 3000ft
5 to 8 km
1000 to 3000 ft
1500m to 5 km
500 to 1000 ft
800 to 1500m
200 to 500 ft
< 800m
< 200 ft
Symbols :   Thunderstorms  Fog  Heavy snow  Heavy precipitations  Wind > 20 kt
SIGMETs :     Misc.  Thunderstorms  Icing  Turbulence  Mountain Waves  Volcanic Ashes






- Airport Elevation : 65 ft
- IATA code : PIK


EGPK - Glasgow Prestwick

CURRENT METAR :
  • 171920Z 14004KT 9999 -RA FEW006 SCT033 13/13 Q1011

EXPIRED METARs :
  • 171850Z VRB01KT 9999 -RADZ SCT006 SCT011 BKN038 13/13 Q1011
  • 171820Z 25004KT 3500 RADZ FEW006 OVC012 14/13 Q1010
  • 171750Z 26008KT 3400 RADZ FEW006 OVC023 14/13 Q1010
  • 171720Z 29012KT 2600 RADZ FEW006 SCT010 OVC017 14/13 Q1010
  • 171650Z 29008KT 250V310 9999 FEW008 BKN015 15/14 Q1009

TAF TAF EGPK
Valid from the 17 at 18:00 until the 18 at 18:00 UTC


171659Z 1718/1818 27008KT 9999 SCT010 BKN025
TEMPO 1718/1721 7000 -RADZ BKN010
PROB40
TEMPO 1718/1721 2000 RADZ BKN006
PROB30
TEMPO 1721/1802 7000 BKN008
PROB30
TEMPO 1802/1809 4000 BR BKN004



MET'MAP, your aeronautical weather chart ! - Copyright ORBIFLY December 2007 - Disclaimer

ORBIFLY MET'MAP TEAM :

Programming & Development : Alexandra Zaïnal
Concept & original design : Baudouin d'Aumeries
Assistance for programming : Marc-Olivier Méhu
Technical & hardware support : Manuel Goepfert

Contact : metmap@orbifly.com




SOURCES & CREDITS :

   NOAA